Time;durP1;ratioP1;P1;durP2;ratioP2;P2;SDS_P1;SDS_P2;PMS_P1;PMS_P2;Temp;Humidity;BMP_temperature;BMP_pressure;BME280_temperature;BME280_humidity;BME280_pressure;Samples;Min_cycle;Max_cycle;Signal;HPM_P1;HPM_P2
2022/04/23 20:08:12;;;;;;;42.70;34.87;;;;;;;;;;5049731;23;20234;-82
2022/04/23 20:10:39;;;;;;;44.23;35.47;;;;;;;;;;4952995;28;20214;-83
2022/04/23 20:13:06;;;;;;;44.67;36.50;;;;;;;;;;4935517;29;20632;-83
2022/04/23 20:15:34;;;;;;;44.97;36.23;;;;;;;;;;4947218;28;20232;-83
2022/04/23 20:18:01;;;;;;;47.30;36.70;;;;;;;;;;4948636;29;20235;-84
2022/04/23 20:20:28;;;;;;;49.23;37.83;;;;;;;;;;4937925;28;20231;-85
2022/04/23 20:22:56;;;;;;;46.83;37.17;;;;;;;;;;4960208;28;20285;-84
2022/04/23 20:25:24;;;;;;;45.27;34.80;;;;;;;;;;4948646;29;20302;-83
2022/04/23 20:27:52;;;;;;;29.70;25.33;;;;;;;;;;4948841;29;20219;-82
2022/04/23 20:30:20;;;;;;;29.63;25.30;;;;;;;;;;4947766;29;20290;-83
2022/04/23 20:32:47;;;;;;;26.13;19.13;;;;;;;;;;4946488;29;20294;-82
2022/04/23 20:38:13;;;;;;;7.50;6.33;;;;;;;;;;4948541;28;20273;-84
2022/04/23 20:40:43;;;;;;;5.60;3.77;;;;;;;;;;4948094;29;20704;-84
2022/04/23 20:43:10;;;;;;;5.53;3.53;;;;;;;;;;4945241;29;20231;-84
2022/04/23 20:45:39;;;;;;;4.73;3.70;;;;;;;;;;4945112;29;20295;-84
2022/04/23 20:48:08;;;;;;;5.73;4.50;;;;;;;;;;4942534;29;20253;-84
2022/04/23 20:50:36;;;;;;;3.70;2.70;;;;;;;;;;4951397;29;20570;-84
2022/04/23 20:53:13;;;;;;;2.53;2.20;;;;;;;;;;4949130;29;20213;-83
2022/04/23 20:55:44;;;;;;;11.73;9.67;;;;;;;;;;4947016;28;20273;-83
2022/04/23 20:58:12;;;;;;;7.67;6.43;;;;;;;;;;4944344;28;20206;-84
2022/04/23 21:00:39;;;;;;;4.67;2.53;;;;;;;;;;4944775;29;20207;-85
2022/04/23 21:03:06;;;;;;;4.97;3.50;;;;;;;;;;4945771;29;20294;-85
2022/04/23 21:05:34;;;;;;;12.33;11.03;;;;;;;;;;4949638;28;20234;-84
2022/04/23 21:08:02;;;;;;;6.60;5.20;;;;;;;;;;4950570;28;20242;-84
2022/04/23 21:10:29;;;;;;;4.30;2.80;;;;;;;;;;4950472;28;20203;-84
2022/04/23 21:12:58;;;;;;;4.20;3.40;;;;;;;;;;4947373;28;20199;-85
2022/04/23 21:15:26;;;;;;;3.20;2.63;;;;;;;;;;4951020;29;20680;-85
2022/04/23 21:17:53;;;;;;;4.67;2.77;;;;;;;;;;4945701;28;20206;-85
2022/04/23 21:20:20;;;;;;;26.33;23.83;;;;;;;;;;4944839;28;20294;-84
2022/04/23 21:22:47;;;;;;;34.40;31.10;;;;;;;;;;4947967;28;20680;-84
2022/04/23 21:25:15;;;;;;;25.67;22.97;;;;;;;;;;4944377;29;20799;-84
2022/04/23 21:27:43;;;;;;;13.00;11.70;;;;;;;;;;4950621;28;20214;-84
2022/04/23 21:30:13;;;;;;;6.47;5.87;;;;;;;;;;4944736;29;20211;-85
2022/04/23 21:32:40;;;;;;;20.57;18.57;;;;;;;;;;4944839;29;20671;-85
2022/04/23 21:35:08;;;;;;;13.77;12.37;;;;;;;;;;4942487;29;20290;-84
2022/04/23 21:37:35;;;;;;;10.33;9.20;;;;;;;;;;4951740;29;20295;-85
2022/04/23 21:40:02;;;;;;;13.27;10.77;;;;;;;;;;4946908;29;20228;-84
2022/04/23 21:45:16;;;;;;;22.73;20.17;;;;;;;;;;4950964;29;20284;-84
2022/04/23 21:47:43;;;;;;;7.97;6.17;;;;;;;;;;4947900;29;20683;-85
2022/04/23 21:50:11;;;;;;;16.40;14.93;;;;;;;;;;4955991;29;20226;-84
2022/04/23 21:52:39;;;;;;;10.97;9.77;;;;;;;;;;4955722;29;20218;-85
2022/04/23 21:55:07;;;;;;;4.50;4.00;;;;;;;;;;4948170;29;20299;-84
2022/04/23 21:57:35;;;;;;;4.23;3.80;;;;;;;;;;4955749;29;20806;-84
2022/04/23 22:00:04;;;;;;;4.30;3.90;;;;;;;;;;4943099;29;20286;-84
2022/04/23 22:02:33;;;;;;;4.60;3.87;;;;;;;;;;4955282;29;20230;-83
2022/04/23 22:05:00;;;;;;;4.23;3.80;;;;;;;;;;4952197;29;20230;-84
2022/04/23 22:07:27;;;;;;;5.10;3.83;;;;;;;;;;4948210;28;20270;-84
2022/04/23 22:09:58;;;;;;;5.00;4.17;;;;;;;;;;4940491;29;20310;-84
2022/04/23 22:12:25;;;;;;;33.97;30.43;;;;;;;;;;4949241;29;20235;-84
2022/04/23 22:14:53;;;;;;;24.10;21.60;;;;;;;;;;4951698;29;20289;-85
2022/04/23 22:17:20;;;;;;;15.97;14.43;;;;;;;;;;4941813;28;20872;-84
2022/04/23 22:19:49;;;;;;;11.23;9.97;;;;;;;;;;4953390;28;20226;-84
2022/04/23 22:22:16;;;;;;;6.40;5.77;;;;;;;;;;4941135;28;20238;-84
2022/04/23 22:24:43;;;;;;;5.20;4.50;;;;;;;;;;4949300;29;20217;-84
2022/04/23 22:27:11;;;;;;;7.90;5.50;;;;;;;;;;4949586;28;20590;-84
2022/04/23 22:29:38;;;;;;;6.47;5.40;;;;;;;;;;4953931;28;20255;-84
2022/04/23 22:32:06;;;;;;;5.90;5.07;;;;;;;;;;4944623;29;20584;-85
2022/04/23 22:34:33;;;;;;;6.07;4.60;;;;;;;;;;4946688;29;20215;-84
2022/04/23 22:37:03;;;;;;;7.20;4.93;;;;;;;;;;4931928;29;20563;-84
2022/04/23 22:39:30;;;;;;;4.30;3.90;;;;;;;;;;4949139;29;20195;-85
2022/04/23 22:41:58;;;;;;;5.47;4.13;;;;;;;;;;4950478;28;20212;-76
2022/04/23 22:44:27;;;;;;;4.47;3.60;;;;;;;;;;4952134;28;20697;-77
2022/04/23 22:46:54;;;;;;;4.27;3.57;;;;;;;;;;4948894;28;20288;-77
2022/04/23 22:49:21;;;;;;;3.73;3.10;;;;;;;;;;4953934;29;20262;-77
2022/04/23 22:51:49;;;;;;;4.83;3.57;;;;;;;;;;4949636;29;20279;-77
2022/04/23 22:54:18;;;;;;;3.83;3.43;;;;;;;;;;4949391;28;20668;-77
2022/04/23 22:56:45;;;;;;;3.90;3.50;;;;;;;;;;4947624;28;20269;-77
2022/04/23 22:59:13;;;;;;;4.73;3.93;;;;;;;;;;4954296;29;20613;-76
2022/04/23 23:01:40;;;;;;;5.13;3.80;;;;;;;;;;4945643;28;20247;-77
2022/04/23 23:04:08;;;;;;;6.10;5.33;;;;;;;;;;4940860;29;20306;-77
2022/04/23 23:06:35;;;;;;;5.87;4.87;;;;;;;;;;4947489;29;20283;-77
2022/04/23 23:09:02;;;;;;;6.23;5.00;;;;;;;;;;4943726;29;20753;-77
2022/04/23 23:11:31;;;;;;;7.33;6.27;;;;;;;;;;4949621;28;20199;-76
2022/04/23 23:13:58;;;;;;;10.60;8.03;;;;;;;;;;4945886;29;20203;-77
2022/04/23 23:16:25;;;;;;;13.83;11.53;;;;;;;;;;4953640;29;20242;-76
2022/04/23 23:18:52;;;;;;;8.43;7.33;;;;;;;;;;4944739;28;20263;-76
2022/04/23 23:21:19;;;;;;;15.30;13.10;;;;;;;;;;4951998;29;20592;-77
2022/04/23 23:23:47;;;;;;;13.73;11.63;;;;;;;;;;4953913;29;20253;-77
2022/04/23 23:26:14;;;;;;;11.67;6.67;;;;;;;;;;4941062;29;20209;-77
2022/04/23 23:28:42;;;;;;;11.87;9.13;;;;;;;;;;4950084;28;20270;-77
2022/04/23 23:31:10;;;;;;;17.07;13.40;;;;;;;;;;4947673;28;20242;-77
2022/04/23 23:33:37;;;;;;;28.57;20.53;;;;;;;;;;4945306;28;20638;-76
2022/04/23 23:36:05;;;;;;;34.90;25.70;;;;;;;;;;4953361;28;20230;-77
2022/04/23 23:38:32;;;;;;;29.40;21.67;;;;;;;;;;4950228;29;20278;-77
2022/04/23 23:40:59;;;;;;;36.00;26.33;;;;;;;;;;4953288;28;20291;-77
2022/04/23 23:43:26;;;;;;;38.23;28.97;;;;;;;;;;4941992;29;20242;-76
2022/04/23 23:45:55;;;;;;;53.03;39.03;;;;;;;;;;4945617;29;20231;-77
2022/04/23 23:48:22;;;;;;;56.57;39.87;;;;;;;;;;4944439;29;20298;-77
2022/04/23 23:50:50;;;;;;;23.07;18.50;;;;;;;;;;4948045;29;20581;-77
2022/04/23 23:53:17;;;;;;;20.00;16.23;;;;;;;;;;4952933;29;20307;-76
2022/04/23 23:55:44;;;;;;;21.40;16.60;;;;;;;;;;4947132;29;20207;-77
2022/04/23 23:58:11;;;;;;;23.07;18.47;;;;;;;;;;4953007;28;20210;-76
